Terminal Aerodrome Forecast
Issued by NWS Binghamton, NY

Home | Current Version | Previous Version | Text Only | Print | Product List | Glossary On
Versions: 1 2 3 4 5 6 7 8 9 10 11 12 13 14 15 16 17 18 19 20
000
FTUS41 KBGM 020800 AAA
TAFBGM
TAF AMD
KBGM 020849Z 0209/0306 13005KT 4SM BR SCT002 OVC015
      TEMPO 0209/0212 1/2SM FG OVC002
     FM021400 13005KT P6SM BKN035
     FM030000 15008KT P6SM SCT040=

USA.gov is the U.S. government's official web portal to all federal, state and local government web resources and services.